createdAt,value
2022-12-16T00:01:48.948Z,77.07
2022-12-16T00:04:16.112Z,78.10
2022-12-16T00:06:44.583Z,80.23
2022-12-16T00:09:11.671Z,78.47
2022-12-16T00:11:38.727Z,78.50
2022-12-16T00:14:05.874Z,77.87
2022-12-16T00:16:33.036Z,81.23
2022-12-16T00:19:00.276Z,80.43
2022-12-16T00:21:27.371Z,79.23
2022-12-16T00:23:55.818Z,62.00
2022-12-16T00:26:22.958Z,71.13
2022-12-16T00:28:50.029Z,57.03
2022-12-16T00:31:18.933Z,67.37
2022-12-16T00:33:46.049Z,75.20
2022-12-16T00:36:13.177Z,72.33
2022-12-16T00:38:40.298Z,83.50
2022-12-16T00:41:08.732Z,71.57
2022-12-16T00:43:36.220Z,71.70
2022-12-16T00:46:03.619Z,73.50
2022-12-16T00:48:30.795Z,65.77
2022-12-16T00:50:57.900Z,83.53
2022-12-16T00:53:25.961Z,80.57
2022-12-16T00:55:53.092Z,86.30
2022-12-16T00:58:22.198Z,81.90
2022-12-16T01:00:51.917Z,67.60
2022-12-16T01:03:21.885Z,68.47
2022-12-16T01:05:49.366Z,85.70
2022-12-16T01:08:16.733Z,85.73
2022-12-16T01:10:43.833Z,74.73
2022-12-16T01:13:10.912Z,71.63
2022-12-16T01:15:39.346Z,82.30
2022-12-16T01:18:06.482Z,84.23
2022-12-16T01:20:33.621Z,77.20
2022-12-16T01:23:00.768Z,80.10
2022-12-16T01:25:27.853Z,75.03
2022-12-16T01:27:54.971Z,82.60
2022-12-16T01:30:22.390Z,74.87
2022-12-16T01:32:50.893Z,62.27
2022-12-16T01:35:51.318Z,85.10
2022-12-16T01:38:06.505Z,70.27
2022-12-16T01:40:33.642Z,79.90
2022-12-16T01:43:00.754Z,71.30
2022-12-16T01:45:30.025Z,69.80
2022-12-16T01:47:59.806Z,67.83
2022-12-16T01:50:27.482Z,62.73
2022-12-16T01:52:57.148Z,87.03
2022-12-16T01:55:26.449Z,72.80
2022-12-16T01:57:55.874Z,81.47
2022-12-16T02:00:23.279Z,85.50
2022-12-16T02:02:51.840Z,74.57
2022-12-16T02:05:21.006Z,70.23
2022-12-16T02:07:52.869Z,77.43
2022-12-16T02:10:21.721Z,74.47
2022-12-16T02:12:53.419Z,82.20
2022-12-16T02:15:25.662Z,87.03
2022-12-16T02:17:55.969Z,81.63
2022-12-16T02:20:40.768Z,68.13
2022-12-16T02:23:22.233Z,71.50
2022-12-16T02:26:11.923Z,73.67
2022-12-16T02:28:47.993Z,64.57
2022-12-16T02:31:20.601Z,71.63
2022-12-16T02:33:52.788Z,76.40
2022-12-16T02:36:25.419Z,73.00
2022-12-16T02:38:56.469Z,71.10
2022-12-16T02:41:26.160Z,70.40
2022-12-16T02:43:55.313Z,61.57
2022-12-16T02:46:26.145Z,82.53
2022-12-16T02:48:53.604Z,73.47
2022-12-16T02:51:21.030Z,67.13
2022-12-16T02:53:49.494Z,65.23
2022-12-16T02:56:23.992Z,75.10
2022-12-16T02:58:52.750Z,76.70
2022-12-16T03:01:24.505Z,75.53
2022-12-16T03:03:57.877Z,71.67
2022-12-16T03:06:25.886Z,76.50
2022-12-16T03:08:55.801Z,72.80
2022-12-16T03:11:24.321Z,87.07
2022-12-16T03:13:53.593Z,79.83
2022-12-16T03:16:22.781Z,68.37
2022-12-16T03:18:51.643Z,63.80
2022-12-16T03:21:24.802Z,69.33
2022-12-16T03:23:53.721Z,71.03
2022-12-16T03:26:24.602Z,68.83
2022-12-16T03:28:54.603Z,52.20
2022-12-16T03:31:28.134Z,77.37
2022-12-16T03:33:57.829Z,61.70
2022-12-16T03:36:27.333Z,69.77
2022-12-16T03:38:54.810Z,68.90
2022-12-16T03:41:23.505Z,69.87
2022-12-16T03:43:50.993Z,79.57
2022-12-16T03:46:18.954Z,66.90
2022-12-16T03:48:46.673Z,75.43
2022-12-16T03:51:13.880Z,64.30
2022-12-16T03:53:42.321Z,49.40
2022-12-16T03:56:09.419Z,71.37
2022-12-16T03:58:36.552Z,70.20
2022-12-16T04:01:03.637Z,68.07
2022-12-16T04:03:31.178Z,79.87
2022-12-16T04:05:58.504Z,59.40
2022-12-16T04:08:25.630Z,55.60
2022-12-16T04:10:54.366Z,58.37
2022-12-16T04:13:22.095Z,62.80
2022-12-16T04:15:49.224Z,58.87
2022-12-16T04:18:18.179Z,47.90
2022-12-16T04:20:46.294Z,80.97
2022-12-16T04:23:13.397Z,53.03
2022-12-16T04:25:40.510Z,69.23
2022-12-16T04:28:08.971Z,69.17
2022-12-16T04:30:36.226Z,63.43
2022-12-16T04:33:05.509Z,62.80
2022-12-16T04:35:32.693Z,66.00
2022-12-16T04:37:59.810Z,66.40
2022-12-16T04:40:26.886Z,73.50
2022-12-16T04:42:53.997Z,68.90
2022-12-16T04:45:22.434Z,62.90
2022-12-16T04:47:54.089Z,63.53
2022-12-16T04:50:24.099Z,73.17
2022-12-16T04:52:51.392Z,74.27
2022-12-16T04:55:18.521Z,75.70
2022-12-16T04:57:47.762Z,71.47
2022-12-16T05:00:14.914Z,73.13
2022-12-16T05:02:43.450Z,62.27
2022-12-16T05:05:10.560Z,65.23
2022-12-16T05:07:38.729Z,66.60
2022-12-16T05:10:06.410Z,63.27
2022-12-16T05:12:33.543Z,65.00
2022-12-16T05:15:00.654Z,62.17
2022-12-16T05:17:27.843Z,52.97
2022-12-16T05:19:56.339Z,63.70
2022-12-16T05:22:23.454Z,69.30
2022-12-16T05:24:53.041Z,58.63
2022-12-16T05:27:20.432Z,82.00
2022-12-16T05:29:47.502Z,61.30
2022-12-16T05:32:14.852Z,69.80
2022-12-16T05:34:42.001Z,67.13
2022-12-16T05:37:10.450Z,60.50
2022-12-16T05:39:37.588Z,56.20
2022-12-16T05:42:04.815Z,59.70
2022-12-16T05:44:31.869Z,64.10
2022-12-16T05:46:59.109Z,57.00
2022-12-16T05:49:26.268Z,51.83
2022-12-16T05:51:53.383Z,62.93
2022-12-16T05:54:21.817Z,69.73
2022-12-16T05:56:48.949Z,68.50
2022-12-16T05:59:16.051Z,56.60
2022-12-16T06:01:43.322Z,58.10
2022-12-16T06:04:15.557Z,55.50
2022-12-16T06:06:44.663Z,58.13
2022-12-16T06:09:11.765Z,71.93
2022-12-16T06:11:40.197Z,56.37
2022-12-16T06:14:07.621Z,59.23
2022-12-16T06:16:34.777Z,53.07
2022-12-16T06:19:01.909Z,56.90
2022-12-16T06:21:28.999Z,54.00
2022-12-16T06:23:56.140Z,75.53
2022-12-16T06:26:23.261Z,60.80
2022-12-16T06:28:51.841Z,59.10
2022-12-16T06:31:19.023Z,71.70
2022-12-16T06:33:48.637Z,68.87
2022-12-16T06:36:19.049Z,78.50
2022-12-16T06:38:46.112Z,68.00
2022-12-16T06:41:13.225Z,59.10
2022-12-16T06:43:40.310Z,55.43
2022-12-16T06:46:08.894Z,73.97
2022-12-16T06:48:36.035Z,59.10
2022-12-16T06:51:03.157Z,71.57
2022-12-16T06:53:30.625Z,66.20
2022-12-16T06:55:58.012Z,62.90
2022-12-16T06:58:25.140Z,61.53
2022-12-16T07:00:52.401Z,71.50
2022-12-16T07:03:20.979Z,79.40
2022-12-16T07:05:48.108Z,64.43
2022-12-16T07:08:15.172Z,58.90
2022-12-16T07:10:42.280Z,53.50
2022-12-16T07:13:09.344Z,57.90
2022-12-16T07:15:36.486Z,60.73
2022-12-16T07:18:03.552Z,68.37
2022-12-16T07:20:32.036Z,63.03
2022-12-16T07:23:08.373Z,57.60
2022-12-16T07:25:39.125Z,71.60
2022-12-16T07:28:09.458Z,69.87
2022-12-16T07:30:42.672Z,57.07
2022-12-16T07:33:09.777Z,56.10
2022-12-16T07:35:38.207Z,67.47
2022-12-16T07:38:05.334Z,58.40
2022-12-16T07:40:32.456Z,70.13
2022-12-16T07:42:59.613Z,69.67
2022-12-16T07:45:26.757Z,55.57
2022-12-16T07:47:54.006Z,57.07
2022-12-16T07:50:22.564Z,67.20
2022-12-16T07:52:55.642Z,66.93
2022-12-16T07:55:22.790Z,64.03
2022-12-16T07:57:50.388Z,70.40
2022-12-16T08:00:17.898Z,53.70
2022-12-16T08:02:46.451Z,53.90
2022-12-16T08:05:14.118Z,66.50
2022-12-16T08:07:41.496Z,63.50
2022-12-16T08:10:10.400Z,57.80
2022-12-16T08:12:37.558Z,52.40
2022-12-16T08:15:05.138Z,74.77
2022-12-16T08:17:32.397Z,63.60
2022-12-16T08:19:59.485Z,64.23
2022-12-16T08:22:26.608Z,56.90
2022-12-16T08:24:55.990Z,60.80
2022-12-16T08:27:24.693Z,60.43
2022-12-16T08:29:52.039Z,51.67
2022-12-16T08:32:19.247Z,51.83
2022-12-16T08:34:46.358Z,57.30
2022-12-16T08:37:13.503Z,59.30
2022-12-16T08:39:40.585Z,70.67
2022-12-16T08:42:07.705Z,74.83
2022-12-16T08:44:36.235Z,65.67
2022-12-16T08:47:03.507Z,58.77
2022-12-16T08:49:30.700Z,71.17
2022-12-16T08:51:57.930Z,64.37
2022-12-16T08:54:25.026Z,77.37
2022-12-16T08:56:52.223Z,66.60
2022-12-16T08:59:19.401Z,86.23
2022-12-16T09:01:47.999Z,74.27
2022-12-16T09:04:15.308Z,77.50
2022-12-16T09:06:42.481Z,73.23
2022-12-16T09:09:09.600Z,75.23
2022-12-16T09:11:36.698Z,85.00
2022-12-16T09:14:04.018Z,67.90
2022-12-16T09:16:31.214Z,81.73
2022-12-16T09:18:59.751Z,58.03
2022-12-16T09:21:31.758Z,64.20
2022-12-16T09:24:00.380Z,68.30
2022-12-16T09:26:27.639Z,65.57
2022-12-16T09:28:54.769Z,92.80
2022-12-16T09:31:21.933Z,78.50
2022-12-16T09:33:49.119Z,73.93
2022-12-16T09:36:17.596Z,58.50
2022-12-16T09:38:44.680Z,60.60
2022-12-16T09:41:21.134Z,54.00
2022-12-16T09:43:55.246Z,59.63
2022-12-16T09:46:28.643Z,54.97
2022-12-16T09:49:00.925Z,67.37
2022-12-16T09:51:29.602Z,48.83
2022-12-16T09:53:56.921Z,63.97
2022-12-16T09:56:27.541Z,57.90
2022-12-16T09:58:57.988Z,58.60
2022-12-16T10:01:25.617Z,56.03
2022-12-16T10:03:52.909Z,56.30
2022-12-16T10:06:27.878Z,57.27
2022-12-16T10:09:00.082Z,68.00
2022-12-16T10:11:33.316Z,53.57
2022-12-16T10:14:03.293Z,67.20
2022-12-16T10:16:36.830Z,58.50
2022-12-16T10:19:11.261Z,60.90
2022-12-16T10:21:42.517Z,69.63
2022-12-16T10:24:18.614Z,56.17
2022-12-16T10:26:51.679Z,52.43
2022-12-16T10:29:22.467Z,59.97
2022-12-16T10:31:49.772Z,56.00
2022-12-16T10:34:20.047Z,54.13
2022-12-16T10:36:47.749Z,60.20
2022-12-16T10:39:22.804Z,51.37
2022-12-16T10:41:52.348Z,55.57
2022-12-16T10:44:23.125Z,65.10
2022-12-16T10:46:50.388Z,62.57
2022-12-16T10:49:18.803Z,61.30
2022-12-16T10:51:45.947Z,59.47
2022-12-16T10:54:23.600Z,59.90
2022-12-16T10:56:55.520Z,68.97
2022-12-16T10:59:23.321Z,62.83
2022-12-16T11:01:56.943Z,59.90
2022-12-16T11:04:30.841Z,68.10
2022-12-16T11:06:58.008Z,72.17
2022-12-16T11:09:28.384Z,72.90
2022-12-16T11:12:13.854Z,69.63
2022-12-16T11:15:20.432Z,76.10
2022-12-16T11:17:39.604Z,97.13
2022-12-16T11:20:08.822Z,76.50
2022-12-16T11:22:36.001Z,74.87
2022-12-16T11:25:06.367Z,80.43
2022-12-16T11:27:33.451Z,83.83
2022-12-16T11:30:01.308Z,68.77
2022-12-16T11:32:29.128Z,71.33
2022-12-16T11:34:58.439Z,87.30
2022-12-16T11:37:26.513Z,95.00
2022-12-16T11:39:53.647Z,87.73
2022-12-16T11:42:23.227Z,79.77
2022-12-16T11:44:51.676Z,95.33
2022-12-16T11:47:22.733Z,82.80
2022-12-16T11:49:50.744Z,92.53
2022-12-16T11:55:12.396Z,124.90
2022-12-16T11:57:44.835Z,101.57
2022-12-16T12:00:14.136Z,97.03
2022-12-16T12:02:44.530Z,115.77
2022-12-16T12:05:12.892Z,106.70
2022-12-16T12:07:45.707Z,103.23
2022-12-16T12:10:23.492Z,91.63
2022-12-16T12:12:55.074Z,97.03
2022-12-16T12:15:25.124Z,93.00
2022-12-16T12:17:56.269Z,86.53
2022-12-16T12:20:31.410Z,87.10
2022-12-16T12:23:00.320Z,80.23
2022-12-16T12:25:31.342Z,80.13
2022-12-16T12:28:04.481Z,111.73
2022-12-16T12:30:36.050Z,96.40
2022-12-16T12:33:08.889Z,91.37
2022-12-16T12:35:46.286Z,98.77
2022-12-16T12:38:16.470Z,93.63
2022-12-16T12:40:48.503Z,112.07
2022-12-16T12:43:22.414Z,114.23
2022-12-16T12:45:54.224Z,109.67
2022-12-16T12:48:23.074Z,117.70
2022-12-16T12:50:54.747Z,123.13
2022-12-16T12:53:27.017Z,90.17
2022-12-16T12:55:58.232Z,164.10
2022-12-16T12:58:27.449Z,135.03
2022-12-16T13:00:55.972Z,112.23
2022-12-16T13:03:28.441Z,98.47
2022-12-16T13:05:55.721Z,63.23
2022-12-16T13:08:41.765Z,92.53
2022-12-16T13:11:12.684Z,69.73
2022-12-16T13:13:41.143Z,83.10
2022-12-16T13:16:11.011Z,79.67
2022-12-16T13:18:38.096Z,66.80
2022-12-16T13:21:05.667Z,118.43
2022-12-16T13:23:33.886Z,90.47
2022-12-16T13:26:05.207Z,80.57
2022-12-16T13:28:33.668Z,99.57
2022-12-16T13:31:03.671Z,176.67
2022-12-16T13:33:31.889Z,95.23
2022-12-16T13:36:00.117Z,77.70
2022-12-16T13:38:27.302Z,96.73
2022-12-16T13:40:55.279Z,114.30
2022-12-16T13:43:37.470Z,84.17
2022-12-16T13:46:16.495Z,99.90
2022-12-16T13:48:43.680Z,98.70
2022-12-16T13:51:30.820Z,81.70
2022-12-16T13:54:00.127Z,79.17
2022-12-16T13:56:31.254Z,162.53
2022-12-16T13:59:00.283Z,96.43
2022-12-16T14:01:30.200Z,95.40
2022-12-16T14:03:58.548Z,96.83
2022-12-16T14:06:26.509Z,111.20
2022-12-16T14:08:53.660Z,96.10
2022-12-16T14:11:24.089Z,89.63
2022-12-16T14:13:54.175Z,89.37
2022-12-16T14:16:25.674Z,90.40
2022-12-16T14:19:03.372Z,105.63
2022-12-16T14:21:33.454Z,125.37
2022-12-16T14:24:03.716Z,104.20
2022-12-16T14:26:35.463Z,82.93
2022-12-16T14:29:03.858Z,324.90
2022-12-16T14:31:35.399Z,193.33
2022-12-16T14:34:03.747Z,228.83
2022-12-16T14:36:38.642Z,352.27
2022-12-16T14:39:09.817Z,117.93
2022-12-16T14:41:38.287Z,126.57
2022-12-16T14:44:06.326Z,118.33
2022-12-16T14:46:33.537Z,135.43
2022-12-16T14:49:00.689Z,130.87
2022-12-16T14:51:28.602Z,169.33
2022-12-16T14:53:55.728Z,90.43
2022-12-16T14:56:23.940Z,111.63
2022-12-16T14:59:06.901Z,230.70
2022-12-16T15:01:34.437Z,102.93
2022-12-16T15:04:03.650Z,103.40
2022-12-16T15:06:32.776Z,120.37
2022-12-16T15:09:02.824Z,131.90
2022-12-16T15:11:29.983Z,111.73
2022-12-16T15:14:03.911Z,103.37
2022-12-16T15:16:34.598Z,163.47
2022-12-16T15:19:02.167Z,111.73
2022-12-16T15:21:29.658Z,177.67
2022-12-16T15:23:57.144Z,196.93
2022-12-16T15:26:25.471Z,118.30
2022-12-16T15:28:52.874Z,120.67
2022-12-16T15:31:24.223Z,120.50
2022-12-16T15:34:12.682Z,126.23
2022-12-16T15:36:39.786Z,148.80
2022-12-16T15:39:10.083Z,139.87
2022-12-16T15:41:38.054Z,211.60
2022-12-16T15:44:05.349Z,267.87
2022-12-16T15:46:33.176Z,277.23
2022-12-16T15:49:01.710Z,255.20
2022-12-16T15:51:30.431Z,145.53
2022-12-16T15:54:02.078Z,384.13
2022-12-16T15:56:34.302Z,141.13
2022-12-16T15:59:13.899Z,237.53
2022-12-16T16:01:41.360Z,233.63
2022-12-16T16:04:18.435Z,148.77
2022-12-16T16:06:46.662Z,157.03
2022-12-16T16:09:14.333Z,160.07
2022-12-16T16:11:41.855Z,130.73
2022-12-16T16:14:13.911Z,170.70
2022-12-16T16:16:41.616Z,148.50
2022-12-16T16:19:11.679Z,196.63
2022-12-16T16:21:40.151Z,210.47
2022-12-16T16:24:07.491Z,149.30
2022-12-16T16:26:34.615Z,144.33
2022-12-16T16:29:01.729Z,123.97
2022-12-16T16:31:28.979Z,145.10
2022-12-16T16:33:56.128Z,215.67
2022-12-16T16:36:23.269Z,161.57
2022-12-16T16:38:51.717Z,151.20
2022-12-16T16:41:20.172Z,136.50
2022-12-16T16:43:47.247Z,171.43
2022-12-16T16:46:23.974Z,118.23
2022-12-16T16:48:52.446Z,155.27
2022-12-16T16:51:19.560Z,118.80
2022-12-16T16:53:46.701Z,169.53
2022-12-16T16:56:19.904Z,209.10
2022-12-16T16:58:47.458Z,165.20
2022-12-16T17:01:15.424Z,154.67
2022-12-16T17:03:44.092Z,132.53
2022-12-16T17:06:11.536Z,138.63
2022-12-16T17:08:38.731Z,167.00
2022-12-16T17:11:10.341Z,130.27
2022-12-16T17:13:38.793Z,147.07
2022-12-16T17:16:06.230Z,139.67
2022-12-16T17:18:33.733Z,152.50
2022-12-16T17:21:01.949Z,231.20
2022-12-16T17:23:29.065Z,144.57
2022-12-16T17:25:56.293Z,143.10
2022-12-16T17:28:23.592Z,149.20
2022-12-16T17:30:52.110Z,137.07
2022-12-16T17:33:19.345Z,130.87
2022-12-16T17:35:48.717Z,135.93
2022-12-16T17:38:15.820Z,137.30
2022-12-16T17:40:42.924Z,130.17
2022-12-16T17:43:10.248Z,136.30
2022-12-16T17:45:37.373Z,122.17
2022-12-16T17:48:06.024Z,120.33
2022-12-16T17:50:33.129Z,130.27
2022-12-16T17:53:00.291Z,126.03
2022-12-16T17:55:27.464Z,138.20
2022-12-16T17:57:54.594Z,124.97
2022-12-16T18:00:21.739Z,153.60
2022-12-16T18:02:49.133Z,118.50
2022-12-16T18:05:17.763Z,137.03
2022-12-16T18:07:44.865Z,131.53
2022-12-16T18:10:11.986Z,135.47
2022-12-16T18:12:39.165Z,121.27
2022-12-16T18:15:06.545Z,133.33
2022-12-16T18:17:33.678Z,148.17
2022-12-16T18:20:00.768Z,162.07
2022-12-16T18:22:29.235Z,128.33
2022-12-16T18:24:56.347Z,151.70
2022-12-16T18:27:23.442Z,137.67
2022-12-16T18:29:50.558Z,152.53
2022-12-16T18:32:17.686Z,141.87
2022-12-16T18:34:44.795Z,146.10
2022-12-16T18:37:12.693Z,146.30
2022-12-16T18:39:41.160Z,123.97
2022-12-16T18:42:08.960Z,124.63
2022-12-16T18:44:36.145Z,148.23
2022-12-16T18:47:03.302Z,127.60
2022-12-16T18:49:30.519Z,148.50
2022-12-16T18:51:57.600Z,144.33
2022-12-16T18:54:24.748Z,141.23
2022-12-16T18:56:53.181Z,154.27
2022-12-16T18:59:20.308Z,154.90
2022-12-16T19:01:47.462Z,145.10
2022-12-16T19:04:14.747Z,169.90
2022-12-16T19:06:42.080Z,135.40
2022-12-16T19:09:09.193Z,150.60
2022-12-16T19:11:36.330Z,175.37
2022-12-16T19:14:04.809Z,132.97
2022-12-16T19:16:32.047Z,127.73
2022-12-16T19:18:59.196Z,145.27
2022-12-16T19:21:26.468Z,128.47
2022-12-16T19:23:55.093Z,148.93
2022-12-16T19:26:22.271Z,138.23
2022-12-16T19:28:49.426Z,124.97
2022-12-16T19:31:17.887Z,162.10
2022-12-16T19:33:45.069Z,151.23
2022-12-16T19:36:12.169Z,180.43
2022-12-16T19:38:39.302Z,161.53
2022-12-16T19:41:14.061Z,173.17
2022-12-16T19:43:41.177Z,158.63
2022-12-16T19:46:08.366Z,138.73
2022-12-16T19:48:37.795Z,147.43
2022-12-16T19:51:05.110Z,126.87
2022-12-16T19:53:32.278Z,120.83
2022-12-16T19:55:59.877Z,121.57
2022-12-16T19:58:27.000Z,139.73
2022-12-16T20:00:54.109Z,141.13
2022-12-16T20:03:21.378Z,146.20
2022-12-16T20:05:58.741Z,128.60
2022-12-16T20:08:25.939Z,151.23
2022-12-16T20:10:54.830Z,135.17
2022-12-16T20:13:28.520Z,134.73
2022-12-16T20:16:01.084Z,147.50
2022-12-16T20:18:28.238Z,152.57
2022-12-16T20:20:56.739Z,122.40
2022-12-16T20:23:23.866Z,166.40
2022-12-16T20:25:56.462Z,134.20
2022-12-16T20:31:11.149Z,92.27
2022-12-16T20:33:38.235Z,94.80
2022-12-16T20:36:07.232Z,97.67
2022-12-16T20:38:34.889Z,101.10
2022-12-16T20:41:03.086Z,102.17
2022-12-16T20:43:30.172Z,115.50
2022-12-16T20:45:57.307Z,94.27
2022-12-16T20:48:24.458Z,104.40
2022-12-16T20:50:58.386Z,101.07
2022-12-16T20:53:27.246Z,121.33
2022-12-16T20:55:56.272Z,96.33
2022-12-16T20:58:23.411Z,111.83
2022-12-16T21:00:51.931Z,122.13
2022-12-16T21:03:19.136Z,122.37
2022-12-16T21:05:46.426Z,118.73
2022-12-16T21:08:13.537Z,118.97
2022-12-16T21:10:42.008Z,143.50
2022-12-16T21:13:09.502Z,111.50
2022-12-16T21:14:42.476Z,137.53
2022-12-16T21:15:37.650Z,132.97
2022-12-16T21:18:04.969Z,129.90
2022-12-16T21:20:32.111Z,115.60
2022-12-16T21:22:59.848Z,106.03
2022-12-16T21:25:26.948Z,135.90
2022-12-16T21:27:58.048Z,123.73
2022-12-16T21:30:25.413Z,117.90
2022-12-16T21:32:52.537Z,111.97
2022-12-16T21:35:20.917Z,125.27
2022-12-16T21:37:48.030Z,134.40
2022-12-16T21:40:15.170Z,119.13
2022-12-16T21:42:44.096Z,125.50
2022-12-16T21:45:13.161Z,127.40
2022-12-16T21:47:40.299Z,126.67
2022-12-16T21:50:07.672Z,124.20
2022-12-16T21:52:34.761Z,119.60
2022-12-16T21:55:01.860Z,99.23
2022-12-16T21:57:28.954Z,111.30
2022-12-16T21:59:56.445Z,103.60
2022-12-16T22:02:24.971Z,149.10
2022-12-16T22:04:52.169Z,159.77
2022-12-16T22:07:19.259Z,126.17
2022-12-16T22:09:46.528Z,126.33
2022-12-16T22:12:14.528Z,120.00
2022-12-16T22:14:41.651Z,117.57
2022-12-16T22:17:08.759Z,135.33
2022-12-16T22:19:38.556Z,126.57
2022-12-16T22:22:05.749Z,130.47
2022-12-16T22:24:32.851Z,147.43
2022-12-16T22:27:00.273Z,120.07
2022-12-16T22:29:27.384Z,107.90
2022-12-16T22:31:55.076Z,156.07
2022-12-16T22:34:23.589Z,128.20
2022-12-16T22:36:52.028Z,125.87
2022-12-16T22:39:19.179Z,144.53
2022-12-16T22:41:46.301Z,114.23
2022-12-16T22:44:13.441Z,133.20
2022-12-16T22:46:40.595Z,173.80
2022-12-16T22:49:07.741Z,153.03
2022-12-16T22:51:35.705Z,130.47
2022-12-16T22:54:04.277Z,115.43
2022-12-16T22:56:31.424Z,121.30
2022-12-16T22:58:58.539Z,127.13
2022-12-16T23:01:26.021Z,194.07
2022-12-16T23:03:53.857Z,144.17
2022-12-16T23:06:23.722Z,162.83
2022-12-16T23:08:51.851Z,174.23
2022-12-16T23:11:21.960Z,157.27
2022-12-16T23:13:49.055Z,111.27
2022-12-16T23:16:16.238Z,162.90
2022-12-16T23:18:43.425Z,165.17
2022-12-16T23:21:14.942Z,167.93
2022-12-16T23:23:42.598Z,128.23
2022-12-16T23:26:10.141Z,143.37
2022-12-16T23:28:38.626Z,136.47
2022-12-16T23:31:05.838Z,130.30
2022-12-16T23:33:33.005Z,161.70
2022-12-16T23:36:00.155Z,172.17
2022-12-16T23:38:27.243Z,123.77
2022-12-16T23:40:57.631Z,140.23
2022-12-16T23:43:24.706Z,148.10
2022-12-16T23:45:53.194Z,149.90
2022-12-16T23:48:23.415Z,146.40
2022-12-16T23:50:50.528Z,137.83
2022-12-16T23:53:17.644Z,156.17
2022-12-16T23:55:44.757Z,178.87
2022-12-16T23:58:11.878Z,163.67
